Aeroporto :
LOGIN :

Iscrizione | Disclaimer

   EN    FR    IT 

 










Sommario :    VFR   VFR Marginale   IFR   IFR Intensivo   IFR Molto Intensivo
Visibilità : 
Base nubi : 
>= 8 km
>= 3000ft
5 / 8 km
1000 / 3000 ft
1500m / 5 km
500 / 1000 ft
800 / 1500m
200 / 500 ft
< 800m
< 200 ft
Simboli :   Temporali  Nebbia  Neve Forte  Precipitazioni Forti  Vento > 20 kt
SIGMETs :   Varie  Temporali  Ghiacco  Turbolenza  Onda orograficha  Ceneri Vulcaniche






- Altitudine del aeroporto : 140 ft
- Codice IATA : NYO


ESKN - Skavsta

ULTIMO METAR :
  • 050320Z 09009KT 9999 BKN006 12/11 Q0997

METARs OBSOLETI :
  • 050250Z 08005KT 9999 BKN007 12/11 Q0997
  • 050220Z 09004KT 9999 BKN008 12/11 Q0998
  • 050150Z 08005KT 9999 BKN007 12/11 Q0998
  • 050120Z 08006KT 9999 BKN006 12/11 Q0998
  • 050050Z 07006KT 9999 BKN007 11/11 Q0998

TAF TAF ESKN
Valido dal 05 a 00 ore il 06 a 00 ore UTC


042330Z 0500/0524 10010KT CAVOK
PROB40 0500/0505 2000 BR BKN005



MetMap, La meteo Aeronautica in un colpo d'occhio ! - Copyright ORBIFLY Dicembre 2007 - Disclaimer

ORBIFLY MET'MAP TEAM :

Programmazione e sviluppo : Alexandra Zaïnal
Concezione : Baudouin d'Aumeries
Aiuto per la programmazione : Marc-Olivier Méhu
Supporto tecnico e logistico : Manuel Goepfert
Aiuto per la traduzione : Arnaldo La Scala

Contatto : metmap@orbifly.com




FONTI E CREDITI :

   NOAA